Time;durP1;ratioP1;P1;durP2;ratioP2;P2;SDS_P1;SDS_P2;PMS_P1;PMS_P2;Temp;Humidity;BMP_temperature;BMP_pressure;BME280_temperature;BME280_humidity;BME280_pressure;Samples;Min_cycle;Max_cycle;Signal;HPM_P1;HPM_P2
2020/12/13 00:01:54;;;;;;;24.58;3.25;;;;;;;;;;5045440;28;20033;-51
2020/12/13 00:04:21;;;;;;;21.20;2.67;;;;;;;;;;5041246;28;20021;-48
2020/12/13 00:06:48;;;;;;;24.73;2.70;;;;;;;;;;5047558;28;20123;-48
2020/12/13 00:09:16;;;;;;;19.35;2.78;;;;;;;;;;5049197;28;20076;-47
2020/12/13 00:11:43;;;;;;;23.85;2.40;;;;;;;;;;5049398;28;20132;-48
2020/12/13 00:14:10;;;;;;;17.48;2.53;;;;;;;;;;5049155;28;20303;-47
2020/12/13 00:16:37;;;;;;;19.33;2.80;;;;;;;;;;5049318;28;20100;-47
2020/12/13 00:19:04;;;;;;;21.52;2.70;;;;;;;;;;5049294;28;20028;-50
2020/12/13 00:21:31;;;;;;;19.08;2.60;;;;;;;;;;5049162;28;20037;-50
2020/12/13 00:23:58;;;;;;;17.25;2.38;;;;;;;;;;5050308;28;20552;-48
2020/12/13 00:26:25;;;;;;;18.48;2.58;;;;;;;;;;5052458;28;20102;-48
2020/12/13 00:28:52;;;;;;;14.27;2.42;;;;;;;;;;5053618;28;20413;-48
2020/12/13 00:31:19;;;;;;;16.77;2.47;;;;;;;;;;5051453;28;20043;-47
2020/12/13 00:33:46;;;;;;;18.25;2.20;;;;;;;;;;5052439;28;20083;-50
2020/12/13 00:36:13;;;;;;;11.88;2.13;;;;;;;;;;5051848;28;20133;-47
2020/12/13 00:38:40;;;;;;;13.80;2.45;;;;;;;;;;5052608;28;20044;-46
2020/12/13 00:41:07;;;;;;;24.70;2.50;;;;;;;;;;5049668;28;20131;-49
2020/12/13 00:43:34;;;;;;;17.15;2.38;;;;;;;;;;5051467;28;20021;-47
2020/12/13 00:46:01;;;;;;;10.38;1.90;;;;;;;;;;5050930;28;20033;-51
2020/12/13 00:48:28;;;;;;;16.98;2.40;;;;;;;;;;5052021;28;20537;-54
2020/12/13 00:50:55;;;;;;;13.38;2.17;;;;;;;;;;5052016;28;20025;-57
2020/12/13 00:53:22;;;;;;;14.52;2.80;;;;;;;;;;5045349;28;21991;-55
2020/12/13 00:55:49;;;;;;;15.43;2.58;;;;;;;;;;5048701;28;20028;-58
2020/12/13 00:58:16;;;;;;;14.63;2.63;;;;;;;;;;5052237;28;20056;-57
2020/12/13 01:00:43;;;;;;;15.77;2.75;;;;;;;;;;5051375;28;20053;-56
2020/12/13 01:03:10;;;;;;;15.25;2.83;;;;;;;;;;5052252;28;20427;-56
2020/12/13 01:05:37;;;;;;;14.82;2.95;;;;;;;;;;5051679;28;20491;-47
2020/12/13 01:08:04;;;;;;;13.60;3.03;;;;;;;;;;5041778;28;20387;-55
2020/12/13 01:10:31;;;;;;;15.00;4.07;;;;;;;;;;5043774;28;20036;-50
2020/12/13 01:12:58;;;;;;;23.02;4.38;;;;;;;;;;5044332;28;20029;-50
2020/12/13 01:15:25;;;;;;;26.20;4.25;;;;;;;;;;5039118;28;20784;-50
2020/12/13 01:17:53;;;;;;;14.52;4.07;;;;;;;;;;5041486;28;20040;-54
2020/12/13 01:20:21;;;;;;;20.17;4.35;;;;;;;;;;5036916;28;20018;-51
2020/12/13 01:22:48;;;;;;;23.85;4.95;;;;;;;;;;5038450;28;20131;-56
2020/12/13 01:25:15;;;;;;;22.83;4.90;;;;;;;;;;5040369;28;20021;-54
2020/12/13 01:27:42;;;;;;;15.48;4.65;;;;;;;;;;5038627;28;20389;-50
2020/12/13 01:30:09;;;;;;;12.65;3.85;;;;;;;;;;5034177;28;20021;-54
2020/12/13 01:32:40;;;;;;;19.08;5.03;;;;;;;;;;5040233;28;20487;-54
2020/12/13 01:35:08;;;;;;;21.70;4.47;;;;;;;;;;5037786;28;20040;-53
2020/12/13 01:37:35;;;;;;;17.88;5.57;;;;;;;;;;5042682;28;20678;-54
2020/12/13 01:40:03;;;;;;;35.30;5.20;;;;;;;;;;5036218;28;20057;-46
2020/12/13 01:42:30;;;;;;;22.85;5.72;;;;;;;;;;5048401;28;20087;-46
2020/12/13 01:44:57;;;;;;;22.30;5.10;;;;;;;;;;5046144;28;20029;-48
2020/12/13 01:47:28;;;;;;;28.70;6.15;;;;;;;;;;5043305;28;20476;-45
2020/12/13 01:49:55;;;;;;;25.30;5.88;;;;;;;;;;5045677;28;20045;-51
2020/12/13 01:55:11;;;;;;;21.15;5.35;;;;;;;;;;5046570;28;20024;-48
2020/12/13 01:57:39;;;;;;;22.88;5.80;;;;;;;;;;5045740;28;20419;-51
2020/12/13 02:00:14;;;;;;;24.27;5.70;;;;;;;;;;5046151;28;20100;-46
2020/12/13 02:02:45;;;;;;;21.95;5.20;;;;;;;;;;5049975;28;20539;-47
2020/12/13 02:05:14;;;;;;;31.20;6.05;;;;;;;;;;5047801;28;20025;-51
2020/12/13 02:07:42;;;;;;;19.55;5.07;;;;;;;;;;5047687;28;20029;-45
2020/12/13 02:10:10;;;;;;;26.60;5.35;;;;;;;;;;5045232;28;20426;-50
2020/12/13 02:12:38;;;;;;;20.65;4.75;;;;;;;;;;5046247;28;20121;-50
2020/12/13 02:15:06;;;;;;;17.02;4.28;;;;;;;;;;5041105;28;20389;-47
2020/12/13 02:17:36;;;;;;;15.75;4.90;;;;;;;;;;5046667;28;20067;-47
2020/12/13 02:20:13;;;;;;;25.02;5.25;;;;;;;;;;5036344;28;20484;-48
2020/12/13 02:22:41;;;;;;;20.95;4.53;;;;;;;;;;5044479;28;20024;-48
2020/12/13 02:25:17;;;;;;;23.90;4.75;;;;;;;;;;5035312;28;20052;-48
2020/12/13 02:27:44;;;;;;;20.48;4.53;;;;;;;;;;5044962;28;20060;-49
2020/12/13 02:30:11;;;;;;;24.85;4.25;;;;;;;;;;5040172;28;20026;-49
2020/12/13 02:32:38;;;;;;;26.50;5.22;;;;;;;;;;5033882;28;20037;-47
2020/12/13 02:35:06;;;;;;;17.80;4.75;;;;;;;;;;5037175;28;20017;-47
2020/12/13 02:37:33;;;;;;;20.80;4.00;;;;;;;;;;5034484;28;20131;-48
2020/12/13 02:40:00;;;;;;;17.25;4.68;;;;;;;;;;5043609;28;20132;-46
2020/12/13 02:42:28;;;;;;;26.65;4.38;;;;;;;;;;5045154;28;20036;-47
2020/12/13 02:44:55;;;;;;;22.77;4.70;;;;;;;;;;5049529;28;20048;-48
2020/12/13 02:47:22;;;;;;;17.60;4.72;;;;;;;;;;5045365;28;20041;-51
2020/12/13 02:49:49;;;;;;;17.70;4.72;;;;;;;;;;5044881;28;20068;-48
2020/12/13 02:52:18;;;;;;;17.92;4.20;;;;;;;;;;5050434;28;20025;-46
2020/12/13 02:54:45;;;;;;;20.25;4.93;;;;;;;;;;5044756;28;20032;-46
2020/12/13 02:57:12;;;;;;;16.92;4.35;;;;;;;;;;5040814;28;20105;-47
2020/12/13 02:59:39;;;;;;;18.08;4.13;;;;;;;;;;5048043;28;20023;-48
2020/12/13 03:02:06;;;;;;;16.48;3.80;;;;;;;;;;5045387;28;20029;-50
2020/12/13 03:04:33;;;;;;;14.20;3.60;;;;;;;;;;5045672;28;20086;-46
2020/12/13 03:07:01;;;;;;;19.23;3.75;;;;;;;;;;5050235;28;20037;-45
2020/12/13 03:09:28;;;;;;;24.23;4.03;;;;;;;;;;5044783;28;20427;-47
2020/12/13 03:11:55;;;;;;;20.02;3.53;;;;;;;;;;5045570;28;20480;-48
2020/12/13 03:14:22;;;;;;;31.48;4.28;;;;;;;;;;5051407;28;20420;-50
2020/12/13 03:16:49;;;;;;;17.50;3.33;;;;;;;;;;5051025;28;20017;-47
2020/12/13 03:19:16;;;;;;;20.10;3.58;;;;;;;;;;5050370;28;20039;-48
2020/12/13 03:21:43;;;;;;;27.02;3.58;;;;;;;;;;5037962;28;20029;-47
2020/12/13 03:24:11;;;;;;;18.40;3.00;;;;;;;;;;5049924;28;20071;-47
2020/12/13 03:26:38;;;;;;;27.25;3.17;;;;;;;;;;5050705;28;20374;-47
2020/12/13 03:29:05;;;;;;;17.42;3.20;;;;;;;;;;5050065;28;20064;-52
2020/12/13 03:31:32;;;;;;;18.30;2.50;;;;;;;;;;5050847;28;20037;-52
2020/12/13 03:34:00;;;;;;;22.80;3.22;;;;;;;;;;5050967;28;20024;-49
2020/12/13 03:36:27;;;;;;;14.55;2.28;;;;;;;;;;5050649;28;20527;-50
2020/12/13 03:38:54;;;;;;;15.65;2.05;;;;;;;;;;5044504;28;20126;-53
2020/12/13 03:41:21;;;;;;;17.27;1.80;;;;;;;;;;5049763;28;20009;-54
2020/12/13 03:43:49;;;;;;;22.75;2.25;;;;;;;;;;5048459;28;20429;-52
2020/12/13 03:46:16;;;;;;;11.85;1.60;;;;;;;;;;5049596;28;20024;-52
2020/12/13 03:48:43;;;;;;;13.45;1.75;;;;;;;;;;5049812;28;20054;-54
2020/12/13 03:51:10;;;;;;;11.88;1.67;;;;;;;;;;5048453;28;20503;-50
2020/12/13 03:53:37;;;;;;;12.48;1.38;;;;;;;;;;5050313;28;20029;-54
2020/12/13 03:56:05;;;;;;;19.42;2.40;;;;;;;;;;5048774;28;20036;-50
2020/12/13 03:58:32;;;;;;;11.10;1.80;;;;;;;;;;5048703;28;20078;-47
2020/12/13 04:00:59;;;;;;;11.40;1.55;;;;;;;;;;5040196;28;20036;-51
2020/12/13 04:03:26;;;;;;;18.45;2.28;;;;;;;;;;5052971;28;20031;-51
2020/12/13 04:05:53;;;;;;;10.95;1.60;;;;;;;;;;5054452;28;20021;-50
2020/12/13 04:08:20;;;;;;;16.15;2.00;;;;;;;;;;5053587;28;20025;-47
2020/12/13 04:10:47;;;;;;;10.13;1.90;;;;;;;;;;5053518;28;20044;-50
2020/12/13 04:13:15;;;;;;;10.95;1.80;;;;;;;;;;5052952;28;20103;-49
2020/12/13 04:15:42;;;;;;;9.02;1.73;;;;;;;;;;5054078;28;20060;-50
2020/12/13 04:18:09;;;;;;;11.75;2.20;;;;;;;;;;5053276;28;20033;-47
2020/12/13 04:20:36;;;;;;;19.98;1.75;;;;;;;;;;5047584;28;20100;-47
2020/12/13 04:23:03;;;;;;;14.60;2.00;;;;;;;;;;5053279;28;20113;-54
2020/12/13 04:25:30;;;;;;;9.77;1.55;;;;;;;;;;5052670;28;20108;-51
2020/12/13 04:27:57;;;;;;;9.38;1.85;;;;;;;;;;5052939;28;20036;-50
2020/12/13 04:30:25;;;;;;;9.90;1.50;;;;;;;;;;5054130;28;20379;-54
2020/12/13 04:32:51;;;;;;;8.07;1.95;;;;;;;;;;5053858;28;20492;-47
2020/12/13 04:35:18;;;;;;;8.40;1.50;;;;;;;;;;5053604;28;20025;-52
2020/12/13 04:37:46;;;;;;;10.88;2.00;;;;;;;;;;5053501;28;20031;-52
2020/12/13 04:40:13;;;;;;;6.13;1.65;;;;;;;;;;5051809;28;20083;-57
2020/12/13 04:42:40;;;;;;;11.10;2.00;;;;;;;;;;5052603;28;20036;-54
2020/12/13 04:45:09;;;;;;;7.03;1.60;;;;;;;;;;5052645;28;20017;-48
2020/12/13 04:47:50;;;;;;;13.02;2.05;;;;;;;;;;5053696;28;20421;-48
2020/12/13 04:50:20;;;;;;;9.10;1.63;;;;;;;;;;5052526;28;20029;-48
2020/12/13 04:52:50;;;;;;;4.63;1.52;;;;;;;;;;5053705;28;20477;-47
2020/12/13 04:55:17;;;;;;;10.95;1.30;;;;;;;;;;5052902;28;20107;-49
2020/12/13 04:57:45;;;;;;;13.15;2.42;;;;;;;;;;5053466;28;20021;-48
2020/12/13 05:00:13;;;;;;;12.45;1.45;;;;;;;;;;5052615;28;20123;-48
2020/12/13 05:02:40;;;;;;;7.82;1.55;;;;;;;;;;5039705;28;20024;-48
2020/12/13 05:05:07;;;;;;;12.68;1.77;;;;;;;;;;5053338;28;20029;-49
2020/12/13 05:07:34;;;;;;;18.67;2.08;;;;;;;;;;5052317;28;20032;-53
2020/12/13 05:10:02;;;;;;;15.90;1.95;;;;;;;;;;5051415;28;20388;-50
2020/12/13 05:12:29;;;;;;;9.23;1.50;;;;;;;;;;5052049;28;20037;-50
2020/12/13 05:14:56;;;;;;;8.98;1.80;;;;;;;;;;5052487;28;20703;-51
2020/12/13 05:17:25;;;;;;;11.05;2.03;;;;;;;;;;5053838;28;20376;-47
2020/12/13 05:19:52;;;;;;;15.57;1.85;;;;;;;;;;5053051;28;20028;-47
2020/12/13 05:22:22;;;;;;;11.43;2.03;;;;;;;;;;5053725;28;20159;-50
2020/12/13 05:24:50;;;;;;;13.43;1.70;;;;;;;;;;5053168;28;20059;-52
2020/12/13 05:27:22;;;;;;;14.35;2.28;;;;;;;;;;5053265;28;20107;-50
2020/12/13 05:29:53;;;;;;;12.43;2.17;;;;;;;;;;5053470;28;20028;-49
2020/12/13 05:32:23;;;;;;;10.32;2.20;;;;;;;;;;5052717;28;20125;-50
2020/12/13 05:34:51;;;;;;;13.15;2.10;;;;;;;;;;5053300;28;20421;-51
2020/12/13 05:37:19;;;;;;;14.63;2.35;;;;;;;;;;5053378;28;20017;-49
2020/12/13 05:39:53;;;;;;;14.27;2.45;;;;;;;;;;5052849;28;20064;-49
2020/12/13 05:42:32;;;;;;;10.98;2.15;;;;;;;;;;5053048;28;20439;-49
2020/12/13 05:45:12;;;;;;;10.43;2.30;;;;;;;;;;5052857;28;20052;-48
2020/12/13 05:53:09;;;;;;;7.88;2.03;;;;;;;;;;5053206;28;20539;-53
2020/12/13 05:55:36;;;;;;;11.27;2.42;;;;;;;;;;5053298;28;20048;-49
2020/12/13 05:58:03;;;;;;;9.60;2.63;;;;;;;;;;5052594;28;20027;-49
2020/12/13 06:00:30;;;;;;;10.82;2.33;;;;;;;;;;5052730;28;20021;-50
2020/12/13 06:02:58;;;;;;;13.48;2.38;;;;;;;;;;5052838;28;20033;-48
2020/12/13 06:05:28;;;;;;;9.57;2.20;;;;;;;;;;5052931;28;20482;-51
2020/12/13 06:07:59;;;;;;;7.72;2.00;;;;;;;;;;5051269;28;20400;-49
2020/12/13 06:10:26;;;;;;;10.57;2.60;;;;;;;;;;5051465;28;20048;-47
2020/12/13 06:12:59;;;;;;;9.35;2.03;;;;;;;;;;5052627;28;20029;-49
2020/12/13 06:15:27;;;;;;;10.68;2.75;;;;;;;;;;5052471;28;20021;-52
2020/12/13 06:17:54;;;;;;;8.00;1.80;;;;;;;;;;5052280;28;20036;-51
2020/12/13 06:20:22;;;;;;;10.23;1.83;;;;;;;;;;5051275;28;20540;-52
2020/12/13 06:22:51;;;;;;;3.78;1.55;;;;;;;;;;5051837;28;20025;-50
2020/12/13 06:25:20;;;;;;;9.05;2.10;;;;;;;;;;5052348;28;20017;-51
2020/12/13 06:27:48;;;;;;;10.88;1.90;;;;;;;;;;5051784;28;20017;-49
2020/12/13 06:30:16;;;;;;;8.20;1.65;;;;;;;;;;5052632;28;20104;-53
2020/12/13 06:32:43;;;;;;;7.00;2.00;;;;;;;;;;5052511;28;20040;-51
2020/12/13 06:35:11;;;;;;;9.05;1.80;;;;;;;;;;5051813;28;20021;-51
2020/12/13 06:37:38;;;;;;;7.53;1.67;;;;;;;;;;5052795;28;20039;-50
2020/12/13 06:40:06;;;;;;;4.95;1.30;;;;;;;;;;5051107;28;20053;-51
2020/12/13 06:42:38;;;;;;;4.72;1.65;;;;;;;;;;5052313;28;20037;-50
2020/12/13 06:45:12;;;;;;;5.97;1.40;;;;;;;;;;5052022;28;20021;-51
2020/12/13 06:47:43;;;;;;;5.78;1.55;;;;;;;;;;5052280;28;20036;-49
2020/12/13 06:50:30;;;;;;;4.43;1.58;;;;;;;;;;5051711;28;20021;-47
2020/12/13 06:52:57;;;;;;;4.72;1.38;;;;;;;;;;5051784;28;20036;-50
2020/12/13 06:55:34;;;;;;;6.75;1.80;;;;;;;;;;5051352;28;20071;-50
2020/12/13 06:58:01;;;;;;;8.77;1.90;;;;;;;;;;5051815;28;20032;-52
2020/12/13 07:00:28;;;;;;;7.00;1.92;;;;;;;;;;5051518;28;20029;-49
2020/12/13 07:02:59;;;;;;;3.42;1.40;;;;;;;;;;5052006;28;20063;-52
2020/12/13 07:05:45;;;;;;;5.95;1.80;;;;;;;;;;5051301;28;20021;-53
2020/12/13 07:08:13;;;;;;;4.80;1.45;;;;;;;;;;5051794;28;20094;-56
2020/12/13 07:10:44;;;;;;;4.28;1.50;;;;;;;;;;5051183;28;20373;-50
2020/12/13 07:13:18;;;;;;;5.85;1.98;;;;;;;;;;5051828;28;20091;-53
2020/12/13 07:15:53;;;;;;;4.75;1.60;;;;;;;;;;5050854;28;20029;-52
2020/12/13 07:18:23;;;;;;;6.40;1.50;;;;;;;;;;5051463;28;20020;-52
2020/12/13 07:20:50;;;;;;;8.35;1.75;;;;;;;;;;5051359;28;20029;-49
2020/12/13 07:23:17;;;;;;;6.03;2.10;;;;;;;;;;5050068;28;20075;-51
2020/12/13 07:25:43;;;;;;;4.78;1.50;;;;;;;;;;5031076;28;20053;-51
2020/12/13 07:28:11;;;;;;;5.60;1.73;;;;;;;;;;5030113;28;20029;-51
2020/12/13 07:30:39;;;;;;;4.45;1.83;;;;;;;;;;5030546;28;20026;-50
2020/12/13 07:33:06;;;;;;;4.78;1.70;;;;;;;;;;5031154;28;20021;-52
2020/12/13 07:35:34;;;;;;;3.28;1.27;;;;;;;;;;5030658;28;20147;-52
2020/12/13 07:38:02;;;;;;;5.60;1.70;;;;;;;;;;5031276;28;20033;-49
2020/12/13 07:40:29;;;;;;;6.32;1.52;;;;;;;;;;5030099;28;20464;-52
2020/12/13 07:42:57;;;;;;;4.47;1.90;;;;;;;;;;5030957;28;20017;-52
2020/12/13 07:45:24;;;;;;;4.47;1.52;;;;;;;;;;5031419;28;20507;-52
2020/12/13 07:48:00;;;;;;;5.47;1.70;;;;;;;;;;5030562;28;20079;-52
2020/12/13 07:50:34;;;;;;;3.78;1.40;;;;;;;;;;5031488;28;20099;-50
2020/12/13 07:53:01;;;;;;;3.30;1.17;;;;;;;;;;5030659;28;20049;-53
2020/12/13 07:55:28;;;;;;;4.47;1.35;;;;;;;;;;5031225;28;20028;-53
2020/12/13 07:57:57;;;;;;;5.85;1.20;;;;;;;;;;5030706;28;20497;-53
2020/12/13 08:00:24;;;;;;;3.40;1.23;;;;;;;;;;5030753;28;20034;-52
2020/12/13 08:02:56;;;;;;;4.80;1.65;;;;;;;;;;5030724;28;20732;-51
2020/12/13 08:05:23;;;;;;;;;;;;;;;;;;5031590;28;20040;-52
2020/12/13 08:07:59;;;;;;;4.75;1.42;;;;;;;;;;5030593;28;19999;-50
2020/12/13 08:10:29;;;;;;;3.13;1.35;;;;;;;;;;5031198;28;20489;-52
2020/12/13 08:12:57;;;;;;;3.63;1.48;;;;;;;;;;5030170;28;20053;-52
2020/12/13 08:15:24;;;;;;;2.45;0.95;;;;;;;;;;5030909;28;20030;-50
2020/12/13 08:18:08;;;;;;;2.95;1.20;;;;;;;;;;5030666;28;20018;-52
2020/12/13 08:20:39;;;;;;;4.22;1.20;;;;;;;;;;5036491;28;20678;-51
2020/12/13 08:23:07;;;;;;;3.90;1.20;;;;;;;;;;5050512;28;20538;-48
2020/12/13 08:25:37;;;;;;;2.28;1.10;;;;;;;;;;5050801;28;20029;-53
2020/12/13 08:28:05;;;;;;;3.60;1.20;;;;;;;;;;5048559;28;20024;-52
2020/12/13 08:30:32;;;;;;;2.85;1.13;;;;;;;;;;5051027;28;20029;-51
2020/12/13 08:33:00;;;;;;;2.97;1.00;;;;;;;;;;5050482;28;20120;-52
2020/12/13 08:35:29;;;;;;;2.28;0.70;;;;;;;;;;5050699;28;20051;-51
2020/12/13 08:37:57;;;;;;;1.77;0.85;;;;;;;;;;5050492;28;20039;-50
2020/12/13 08:40:46;;;;;;;1.83;0.80;;;;;;;;;;5050577;28;20044;-49
2020/12/13 08:43:24;;;;;;;3.08;0.85;;;;;;;;;;5049935;28;20048;-49
2020/12/13 08:45:57;;;;;;;2.03;0.80;;;;;;;;;;5053013;28;20056;-50
2020/12/13 08:48:25;;;;;;;2.38;0.65;;;;;;;;;;5052280;28;20380;-47
2020/12/13 08:51:12;;;;;;;2.45;0.73;;;;;;;;;;5054402;28;20033;-49
2020/12/13 08:53:39;;;;;;;4.13;0.77;;;;;;;;;;5053491;28;20025;-50
2020/12/13 08:56:07;;;;;;;2.15;0.82;;;;;;;;;;5054408;28;20419;-51
2020/12/13 08:58:47;;;;;;;3.20;0.75;;;;;;;;;;5052824;28;20418;-51
2020/12/13 09:01:15;;;;;;;2.85;0.68;;;;;;;;;;5052319;28;20029;-51
2020/12/13 09:03:42;;;;;;;1.77;0.80;;;;;;;;;;5053653;28;20025;-50
2020/12/13 09:06:09;;;;;;;1.55;0.57;;;;;;;;;;5053652;28;20022;-52
2020/12/13 09:08:36;;;;;;;2.63;0.75;;;;;;;;;;5054020;28;20106;-52
2020/12/13 09:11:04;;;;;;;1.42;0.50;;;;;;;;;;5053571;28;20079;-51
2020/12/13 09:13:32;;;;;;;3.60;0.90;;;;;;;;;;5053769;28;20043;-49
2020/12/13 09:15:59;;;;;;;2.55;0.60;;;;;;;;;;5053345;28;20013;-50
2020/12/13 09:18:26;;;;;;;2.53;0.75;;;;;;;;;;5053656;28;20025;-50
2020/12/13 09:20:57;;;;;;;2.08;0.60;;;;;;;;;;5053577;28;20043;-48
2020/12/13 09:23:25;;;;;;;2.28;0.52;;;;;;;;;;5053447;28;20033;-50
2020/12/13 09:25:53;;;;;;;1.65;0.73;;;;;;;;;;5053275;28;20154;-49
2020/12/13 09:28:21;;;;;;;2.58;0.60;;;;;;;;;;5053633;28;20017;-53
2020/12/13 09:30:48;;;;;;;2.55;0.68;;;;;;;;;;5051201;28;20403;-50
2020/12/13 09:33:15;;;;;;;2.10;0.55;;;;;;;;;;5053565;28;20085;-50
2020/12/13 09:35:42;;;;;;;1.02;0.60;;;;;;;;;;5053117;28;20108;-49
2020/12/13 09:38:11;;;;;;;2.17;0.40;;;;;;;;;;5053184;28;20052;-49
2020/12/13 09:40:38;;;;;;;1.17;0.40;;;;;;;;;;5053218;28;20017;-47
2020/12/13 09:43:05;;;;;;;0.60;0.30;;;;;;;;;;5053028;28;20013;-49
2020/12/13 09:45:32;;;;;;;1.45;0.60;;;;;;;;;;5052098;28;20075;-51
2020/12/13 09:47:59;;;;;;;2.22;0.40;;;;;;;;;;5052982;28;20027;-53
2020/12/13 09:50:27;;;;;;;1.20;0.38;;;;;;;;;;5053183;28;20067;-52
2020/12/13 09:52:54;;;;;;;0.73;0.38;;;;;;;;;;5052727;28;20037;-52
2020/12/13 09:55:21;;;;;;;2.20;0.40;;;;;;;;;;5053103;28;20414;-51
2020/12/13 09:57:48;;;;;;;3.40;0.52;;;;;;;;;;5052315;28;20017;-52
2020/12/13 10:00:15;;;;;;;1.27;0.30;;;;;;;;;;5052975;28;20021;-52
2020/12/13 10:02:43;;;;;;;1.02;0.38;;;;;;;;;;5052682;28;20487;-53
2020/12/13 10:05:21;;;;;;;1.10;0.47;;;;;;;;;;5053107;28;20021;-53
2020/12/13 10:10:15;;;;;;;1.10;0.30;;;;;;;;;;5053058;28;20027;-56
2020/12/13 10:12:43;;;;;;;2.67;0.50;;;;;;;;;;5051877;28;20048;-52
2020/12/13 10:15:13;;;;;;;1.40;0.20;;;;;;;;;;5053098;28;20503;-56
2020/12/13 10:17:41;;;;;;;1.70;0.30;;;;;;;;;;5051231;28;20059;-54
2020/12/13 10:20:08;;;;;;;3.38;0.47;;;;;;;;;;5052507;28;20017;-51
2020/12/13 10:22:35;;;;;;;1.02;0.40;;;;;;;;;;5052285;28;20013;-55
2020/12/13 10:25:02;;;;;;;2.15;0.40;;;;;;;;;;5052558;28;20455;-53
2020/12/13 10:27:29;;;;;;;1.85;0.52;;;;;;;;;;5051363;28;20029;-55
2020/12/13 10:29:56;;;;;;;1.00;0.50;;;;;;;;;;5052082;28;20032;-51
2020/12/13 10:32:24;;;;;;;1.92;0.50;;;;;;;;;;5052594;28;20037;-54
2020/12/13 10:34:51;;;;;;;3.10;0.50;;;;;;;;;;5051461;28;20053;-52
2020/12/13 10:37:18;;;;;;;2.67;0.52;;;;;;;;;;5052173;28;20025;-51
2020/12/13 10:39:45;;;;;;;1.70;0.50;;;;;;;;;;5051618;28;20052;-53
2020/12/13 10:42:12;;;;;;;1.13;0.45;;;;;;;;;;5051982;28;20029;-51
2020/12/13 10:44:38;;;;;;;1.42;0.60;;;;;;;;;;5050250;28;20116;-49
2020/12/13 10:47:05;;;;;;;1.48;0.47;;;;;;;;;;5052430;28;20093;-55
2020/12/13 10:49:32;;;;;;;1.83;0.52;;;;;;;;;;5051127;28;20024;-55
2020/12/13 10:52:01;;;;;;;1.90;0.60;;;;;;;;;;5050462;28;20082;-53
2020/12/13 10:54:29;;;;;;;1.92;0.45;;;;;;;;;;5051801;28;20098;-56
2020/12/13 10:56:56;;;;;;;3.72;0.50;;;;;;;;;;5050788;28;20024;-56
2020/12/13 10:59:23;;;;;;;1.17;0.40;;;;;;;;;;5051463;28;20154;-54
2020/12/13 11:01:50;;;;;;;4.20;0.93;;;;;;;;;;5052109;28;20467;-57
2020/12/13 11:04:18;;;;;;;2.25;0.47;;;;;;;;;;5050635;28;20082;-51
2020/12/13 11:06:48;;;;;;;2.70;0.43;;;;;;;;;;5052025;28;20070;-56
2020/12/13 11:09:15;;;;;;;1.73;0.30;;;;;;;;;;5051242;28;20038;-55
2020/12/13 11:11:42;;;;;;;3.30;0.47;;;;;;;;;;5051011;28;20025;-49
2020/12/13 11:14:09;;;;;;;1.00;0.40;;;;;;;;;;5051043;28;20054;-56
2020/12/13 11:16:36;;;;;;;1.83;0.40;;;;;;;;;;5050953;28;20020;-56
2020/12/13 11:19:05;;;;;;;3.28;0.47;;;;;;;;;;5051302;28;20357;-51
2020/12/13 11:21:32;;;;;;;2.10;0.50;;;;;;;;;;5050722;28;20025;-52
2020/12/13 11:23:59;;;;;;;7.93;0.40;;;;;;;;;;5051000;28;20028;-53
2020/12/13 11:26:26;;;;;;;3.92;0.77;;;;;;;;;;5050547;28;20349;-54
2020/12/13 11:28:53;;;;;;;5.43;0.70;;;;;;;;;;5051161;28;20536;-54
2020/12/13 11:31:20;;;;;;;1.65;0.50;;;;;;;;;;5050092;28;20068;-51
2020/12/13 11:33:47;;;;;;;1.48;0.40;;;;;;;;;;5051382;28;20032;-55
2020/12/13 11:36:14;;;;;;;2.53;0.57;;;;;;;;;;5050944;28;20498;-54
2020/12/13 11:38:41;;;;;;;1.42;0.50;;;;;;;;;;5049733;28;20041;-53
2020/12/13 11:41:08;;;;;;;3.05;0.35;;;;;;;;;;5049943;28;20020;-56
2020/12/13 11:43:35;;;;;;;2.75;0.30;;;;;;;;;;5050960;28;20048;-51
2020/12/13 11:46:02;;;;;;;13.35;0.57;;;;;;;;;;5049499;28;20027;-51
2020/12/13 11:48:29;;;;;;;5.18;0.63;;;;;;;;;;5051512;28;20406;-53
2020/12/13 11:50:56;;;;;;;2.17;0.50;;;;;;;;;;5049949;28;20051;-54
2020/12/13 11:53:23;;;;;;;4.28;0.40;;;;;;;;;;5050673;28;20033;-54
2020/12/13 11:55:51;;;;;;;7.15;0.68;;;;;;;;;;5049824;28;20044;-54
2020/12/13 11:58:18;;;;;;;4.55;0.60;;;;;;;;;;5050096;28;20025;-51
2020/12/13 12:00:45;;;;;;;5.55;0.77;;;;;;;;;;5050526;28;20809;-51
2020/12/13 12:03:12;;;;;;;4.90;0.50;;;;;;;;;;5050826;28;20083;-53
2020/12/13 12:05:40;;;;;;;5.63;0.85;;;;;;;;;;5047704;28;20531;-48
2020/12/13 12:08:07;;;;;;;5.35;0.70;;;;;;;;;;5041324;28;20035;-50
2020/12/13 12:10:34;;;;;;;7.88;0.52;;;;;;;;;;5050320;28;20472;-49
2020/12/13 12:13:01;;;;;;;10.48;0.60;;;;;;;;;;5042953;28;20400;-54
2020/12/13 12:15:28;;;;;;;2.05;0.47;;;;;;;;;;5049290;28;20063;-50
2020/12/13 12:17:55;;;;;;;3.40;0.60;;;;;;;;;;5049210;28;20021;-48
2020/12/13 12:20:27;;;;;;;6.55;0.75;;;;;;;;;;5051601;28;20029;-51
2020/12/13 12:22:54;;;;;;;7.38;0.80;;;;;;;;;;5052951;28;20112;-56
2020/12/13 12:25:21;;;;;;;6.60;0.55;;;;;;;;;;5053183;28;20025;-49
2020/12/13 12:27:48;;;;;;;5.93;0.60;;;;;;;;;;5053693;28;20037;-48
2020/12/13 12:30:15;;;;;;;10.82;0.82;;;;;;;;;;5049037;28;20029;-54
2020/12/13 12:32:42;;;;;;;6.25;0.60;;;;;;;;;;5052509;28;20036;-54
2020/12/13 12:35:09;;;;;;;8.55;0.60;;;;;;;;;;5053005;28;20020;-50
2020/12/13 12:37:36;;;;;;;8.95;0.80;;;;;;;;;;5052316;28;20037;-49
2020/12/13 12:40:04;;;;;;;3.70;0.75;;;;;;;;;;5053078;28;20034;-52
2020/12/13 12:42:32;;;;;;;3.95;0.63;;;;;;;;;;5051277;28;20021;-51
2020/12/13 12:44:59;;;;;;;6.68;0.80;;;;;;;;;;5051791;28;20381;-52
2020/12/13 12:47:26;;;;;;;25.95;2.25;;;;;;;;;;5041538;28;20025;-51
2020/12/13 12:49:53;;;;;;;14.00;1.42;;;;;;;;;;5050421;28;20033;-56
2020/12/13 12:52:20;;;;;;;13.25;1.35;;;;;;;;;;5038851;28;20423;-56
2020/12/13 12:54:47;;;;;;;29.77;1.73;;;;;;;;;;5032672;28;20412;-56
2020/12/13 12:57:14;;;;;;;12.95;1.38;;;;;;;;;;5035439;28;20041;-55
2020/12/13 13:00:16;;;;;;;14.88;1.10;;;;;;;;;;5053188;28;20025;-52
2020/12/13 13:02:28;;;;;;;10.63;1.00;;;;;;;;;;5052631;28;20052;-55
2020/12/13 13:05:06;;;;;;;9.40;1.13;;;;;;;;;;5050790;28;20032;-52
2020/12/13 13:07:37;;;;;;;14.88;1.60;;;;;;;;;;5050965;28;20029;-54
2020/12/13 13:12:34;;;;;;;11.27;1.33;;;;;;;;;;5051483;28;20041;-53
2020/12/13 13:15:03;;;;;;;10.93;1.20;;;;;;;;;;5052657;28;20125;-55
2020/12/13 13:17:33;;;;;;;11.93;1.10;;;;;;;;;;5049463;28;20028;-51
2020/12/13 13:20:02;;;;;;;15.95;1.35;;;;;;;;;;5052705;28;20551;-54
2020/12/13 13:22:29;;;;;;;4.88;1.00;;;;;;;;;;5051957;28;20029;-49
2020/12/13 13:24:56;;;;;;;15.98;1.73;;;;;;;;;;5051677;28;20369;-51
2020/12/13 13:27:23;;;;;;;15.23;1.25;;;;;;;;;;5051857;28;20032;-47
2020/12/13 13:29:51;;;;;;;11.40;1.08;;;;;;;;;;5052096;28;20035;-48
2020/12/13 13:32:18;;;;;;;15.85;1.63;;;;;;;;;;5050585;28;20033;-49
2020/12/13 13:34:45;;;;;;;8.60;0.82;;;;;;;;;;5052025;28;20510;-48
2020/12/13 13:37:12;;;;;;;4.55;0.80;;;;;;;;;;5050560;28;20048;-47
2020/12/13 13:39:39;;;;;;;4.50;0.50;;;;;;;;;;5050871;28;20123;-48
2020/12/13 13:42:07;;;;;;;8.18;1.10;;;;;;;;;;5043988;28;20057;-47
2020/12/13 13:45:05;;;;;;;7.35;0.70;;;;;;;;;;5052902;28;20017;-46
2020/12/13 13:52:31;;;;;;;10.52;1.23;;;;;;;;;;5049492;28;20041;-47
2020/12/13 13:55:07;;;;;;;10.38;1.00;;;;;;;;;;5050242;28;20031;-50
2020/12/13 13:57:35;;;;;;;10.02;1.30;;;;;;;;;;5042195;28;20055;-47
2020/12/13 14:00:05;;;;;;;10.00;1.00;;;;;;;;;;5051699;28;20219;-49
2020/12/13 14:02:32;;;;;;;14.35;1.80;;;;;;;;;;5050990;28;20362;-46
2020/12/13 14:05:00;;;;;;;10.70;1.35;;;;;;;;;;5051310;28;20021;-47
2020/12/13 14:07:52;;;;;;;7.85;1.00;;;;;;;;;;5051116;28;20028;-49
2020/12/13 14:10:19;;;;;;;6.18;0.80;;;;;;;;;;5044667;28;20033;-49
2020/12/13 14:12:46;;;;;;;9.27;0.85;;;;;;;;;;5034193;28;20103;-49
2020/12/13 14:15:13;;;;;;;6.00;1.00;;;;;;;;;;5033751;28;20052;-50
2020/12/13 14:17:40;;;;;;;10.00;1.05;;;;;;;;;;5035430;28;20057;-48
2020/12/13 14:20:07;;;;;;;7.13;1.00;;;;;;;;;;5049782;28;20078;-47
2020/12/13 14:22:34;;;;;;;5.15;0.80;;;;;;;;;;5051379;28;20029;-47
2020/12/13 14:25:01;;;;;;;13.45;1.05;;;;;;;;;;5050795;28;20484;-51
2020/12/13 14:27:28;;;;;;;9.77;1.58;;;;;;;;;;5051227;28;20017;-51
2020/12/13 14:29:55;;;;;;;10.95;1.05;;;;;;;;;;5050898;28;20025;-49
2020/12/13 14:32:22;;;;;;;12.15;1.42;;;;;;;;;;5051065;28;20179;-52
2020/12/13 14:34:49;;;;;;;5.85;1.30;;;;;;;;;;5047704;28;20029;-50
2020/12/13 14:37:16;;;;;;;13.30;1.25;;;;;;;;;;5036957;28;20032;-50
2020/12/13 14:39:43;;;;;;;11.80;1.65;;;;;;;;;;5038870;28;20053;-49
2020/12/13 14:42:10;;;;;;;6.45;1.00;;;;;;;;;;5040318;28;20366;-51
2020/12/13 14:44:37;;;;;;;9.40;1.30;;;;;;;;;;5050253;28;20021;-48
2020/12/13 14:47:04;;;;;;;8.52;1.42;;;;;;;;;;5033726;28;20087;-49
2020/12/13 14:49:30;;;;;;;7.10;1.38;;;;;;;;;;5039014;28;20021;-47
2020/12/13 14:51:57;;;;;;;10.43;1.27;;;;;;;;;;5031846;28;20507;-51
2020/12/13 14:54:24;;;;;;;14.45;1.30;;;;;;;;;;5049496;28;20498;-48
2020/12/13 14:56:51;;;;;;;9.85;1.48;;;;;;;;;;5050377;28;20096;-50
2020/12/13 14:59:18;;;;;;;15.27;1.35;;;;;;;;;;5040695;28;20096;-47
2020/12/13 15:01:45;;;;;;;14.77;2.08;;;;;;;;;;5031689;28;20053;-51
2020/12/13 15:04:12;;;;;;;11.90;1.48;;;;;;;;;;5042270;28;20029;-47